createdAt,value
2022-12-19T00:02:45.893Z,90.06
2022-12-19T00:05:53.279Z,89.38
2022-12-19T00:08:59.131Z,90.10
2022-12-19T00:12:02.892Z,90.53
2022-12-19T00:15:07.641Z,89.97
2022-12-19T00:18:11.307Z,91.04
2022-12-19T00:21:18.262Z,89.43
2022-12-19T00:24:21.966Z,89.38
2022-12-19T00:27:25.728Z,88.59
2022-12-19T00:30:29.510Z,88.35
2022-12-19T00:33:33.828Z,87.46
2022-12-19T00:36:40.998Z,88.05
2022-12-19T00:39:44.501Z,86.34
2022-12-19T00:42:53.696Z,86.07
2022-12-19T00:45:57.933Z,86.67
2022-12-19T00:49:02.370Z,86.08
2022-12-19T00:52:08.720Z,85.14
2022-12-19T00:55:19.053Z,85.12
2022-12-19T00:58:24.033Z,84.81
2022-12-19T01:01:30.698Z,83.66
2022-12-19T01:04:41.086Z,82.14
2022-12-19T01:07:50.621Z,82.43
2022-12-19T01:10:54.501Z,83.16
2022-12-19T01:13:58.320Z,83.53
2022-12-19T01:17:02.434Z,82.36
2022-12-19T01:20:07.411Z,83.32
2022-12-19T01:23:16.014Z,82.22
2022-12-19T01:26:19.905Z,83.34
2022-12-19T01:29:24.374Z,83.41
2022-12-19T01:32:28.291Z,82.75
2022-12-19T01:35:31.989Z,83.65
2022-12-19T01:38:38.173Z,83.28
2022-12-19T01:41:42.067Z,83.58
2022-12-19T01:45:06.072Z,83.45
2022-12-19T01:48:17.835Z,83.31
2022-12-19T01:51:24.675Z,83.45
2022-12-19T01:54:33.839Z,83.32
2022-12-19T01:57:38.599Z,83.33
2022-12-19T02:00:44.906Z,83.48
2022-12-19T02:03:50.091Z,82.60
2022-12-19T02:06:57.394Z,82.94
2022-12-19T02:10:03.150Z,83.11
2022-12-19T02:13:12.848Z,84.31
2022-12-19T02:16:30.079Z,83.87
2022-12-19T02:20:20.247Z,84.51
2022-12-19T02:23:56.021Z,83.96
2022-12-19T02:27:22.200Z,83.95
2022-12-19T02:30:55.223Z,83.52
2022-12-19T02:34:10.404Z,83.19
2022-12-19T02:37:25.106Z,80.99
2022-12-19T02:40:34.714Z,82.45
2022-12-19T02:43:42.924Z,82.30
2022-12-19T02:46:50.925Z,82.91
2022-12-19T02:49:54.765Z,81.71
2022-12-19T02:52:58.529Z,82.28
2022-12-19T02:56:23.524Z,81.81
2022-12-19T02:59:55.761Z,82.42
2022-12-19T03:03:12.397Z,82.68
2022-12-19T03:06:26.394Z,84.77
2022-12-19T03:09:40.304Z,85.16
2022-12-19T03:12:51.511Z,84.65
2022-12-19T03:15:55.549Z,85.76
2022-12-19T03:19:00.991Z,85.63
2022-12-19T03:22:04.654Z,86.83
2022-12-19T03:25:09.413Z,86.44
2022-12-19T03:28:17.680Z,87.96
2022-12-19T03:31:24.880Z,88.06
2022-12-19T03:34:33.115Z,88.34
2022-12-19T03:37:40.169Z,87.90
2022-12-19T03:40:47.308Z,89.25
2022-12-19T03:43:50.108Z,90.59
2022-12-19T03:47:02.448Z,90.80
2022-12-19T03:50:09.890Z,89.86
2022-12-19T03:53:26.582Z,90.06
2022-12-19T03:56:41.329Z,88.40
2022-12-19T03:59:47.992Z,88.07
2022-12-19T04:02:54.389Z,87.58
2022-12-19T04:06:01.543Z,86.86
2022-12-19T04:09:05.842Z,87.30
2022-12-19T04:12:15.160Z,87.06
2022-12-19T04:15:19.613Z,88.24
2022-12-19T04:18:24.526Z,86.08
2022-12-19T04:21:34.318Z,85.21
2022-12-19T04:24:42.345Z,84.70
2022-12-19T04:27:52.593Z,84.67
2022-12-19T04:30:56.516Z,84.34
2022-12-19T04:34:00.366Z,84.03
2022-12-19T04:37:05.894Z,83.88
2022-12-19T04:40:11.323Z,84.10
2022-12-19T04:43:14.989Z,84.80
2022-12-19T04:46:18.596Z,83.50
2022-12-19T04:49:22.230Z,82.79
2022-12-19T04:52:27.546Z,83.47
2022-12-19T04:55:31.282Z,83.43
2022-12-19T04:58:35.213Z,83.47
2022-12-19T05:01:38.857Z,83.14
2022-12-19T05:04:42.613Z,83.34
2022-12-19T05:07:48.340Z,83.01
2022-12-19T05:10:51.989Z,83.11
2022-12-19T05:13:55.590Z,82.04
2022-12-19T05:17:01.533Z,83.26
2022-12-19T05:20:07.214Z,82.47
2022-12-19T05:23:17.304Z,82.03
2022-12-19T05:26:21.549Z,81.83
2022-12-19T05:29:25.512Z,81.32
2022-12-19T05:32:32.552Z,79.62
2022-12-19T05:35:36.363Z,80.60
2022-12-19T05:38:41.659Z,80.31
2022-12-19T05:41:48.830Z,79.68
2022-12-19T05:44:53.041Z,79.12
2022-12-19T05:48:01.079Z,79.35
2022-12-19T05:51:05.367Z,79.24
2022-12-19T05:54:10.436Z,78.66
2022-12-19T05:57:14.185Z,79.20
2022-12-19T06:00:18.598Z,78.38
2022-12-19T06:03:22.732Z,78.52
2022-12-19T06:06:28.407Z,77.60
2022-12-19T06:09:34.343Z,77.00
2022-12-19T06:12:38.408Z,77.08
2022-12-19T06:15:42.290Z,76.56
2022-12-19T06:18:47.700Z,76.32
2022-12-19T06:21:52.009Z,75.73
2022-12-19T06:24:57.305Z,75.24
2022-12-19T06:28:01.105Z,74.49
2022-12-19T06:31:07.283Z,73.98
2022-12-19T06:34:22.095Z,73.29
2022-12-19T06:37:39.339Z,74.12
2022-12-19T06:41:03.870Z,73.29
2022-12-19T06:44:09.546Z,73.33
2022-12-19T06:47:14.443Z,73.74
2022-12-19T06:50:18.454Z,73.35
2022-12-19T06:53:22.605Z,72.91
2022-12-19T06:56:28.498Z,71.87
2022-12-19T06:59:32.342Z,72.04
2022-12-19T07:02:36.396Z,71.63
2022-12-19T07:05:41.416Z,71.20
2022-12-19T07:08:45.373Z,71.28
2022-12-19T07:11:50.594Z,71.00
2022-12-19T07:14:54.528Z,71.50
2022-12-19T07:17:59.198Z,71.86
2022-12-19T07:21:03.694Z,71.14
2022-12-19T07:24:11.652Z,70.83
2022-12-19T07:27:16.901Z,70.72
2022-12-19T07:30:20.909Z,70.69
2022-12-19T07:33:24.593Z,70.45
2022-12-19T07:36:28.445Z,70.68
2022-12-19T07:39:32.334Z,70.72
2022-12-19T07:42:37.600Z,70.35
2022-12-19T07:45:41.766Z,69.76
2022-12-19T07:48:45.746Z,69.61
2022-12-19T07:51:50.018Z,69.58
2022-12-19T07:54:53.907Z,69.36
2022-12-19T07:57:59.210Z,69.08
2022-12-19T08:01:03.890Z,69.64
2022-12-19T08:04:07.713Z,69.84
2022-12-19T08:07:13.070Z,69.64
2022-12-19T08:10:16.892Z,69.19
2022-12-19T08:13:22.274Z,69.10
2022-12-19T08:16:29.172Z,69.97
2022-12-19T08:19:33.168Z,70.06
2022-12-19T08:22:37.261Z,70.44
2022-12-19T08:25:41.111Z,69.52
2022-12-19T08:28:48.421Z,68.81
2022-12-19T08:31:52.267Z,69.60
2022-12-19T08:34:56.928Z,69.04
2022-12-19T08:38:00.719Z,68.41
2022-12-19T08:41:05.206Z,68.65
2022-12-19T08:44:12.990Z,67.92
2022-12-19T08:47:18.171Z,68.44
2022-12-19T08:50:22.160Z,68.27
2022-12-19T08:53:26.953Z,68.40
2022-12-19T08:56:31.215Z,68.36
2022-12-19T08:59:36.516Z,68.69
2022-12-19T09:02:41.310Z,69.01
2022-12-19T09:06:03.977Z,68.71
2022-12-19T09:09:09.401Z,68.44
2022-12-19T09:12:14.464Z,67.98
2022-12-19T09:15:19.925Z,68.80
2022-12-19T09:18:24.366Z,68.87
2022-12-19T09:21:30.680Z,68.82
2022-12-19T09:24:34.589Z,68.42
2022-12-19T09:28:01.255Z,67.92
2022-12-19T09:31:05.760Z,68.30
2022-12-19T09:34:09.984Z,68.25
2022-12-19T09:37:16.800Z,68.36
2022-12-19T09:40:21.641Z,69.27
2022-12-19T09:43:41.571Z,68.80
2022-12-19T09:46:52.015Z,67.66
2022-12-19T09:49:55.976Z,66.37
2022-12-19T09:53:04.851Z,66.79
2022-12-19T09:56:16.374Z,67.78
2022-12-19T09:59:37.107Z,67.40
2022-12-19T10:02:51.677Z,65.55
2022-12-19T10:06:56.228Z,64.91
2022-12-19T10:11:52.489Z,67.41
2022-12-19T10:13:14.662Z,67.55
2022-12-19T10:16:33.287Z,67.71
2022-12-19T10:19:47.806Z,65.93
2022-12-19T10:23:03.037Z,65.24
2022-12-19T10:26:12.464Z,65.55
2022-12-19T10:30:01.936Z,66.45
2022-12-19T10:33:20.727Z,67.06
2022-12-19T10:36:55.907Z,63.87
2022-12-19T10:39:58.218Z,61.99
2022-12-19T10:43:10.483Z,62.08
2022-12-19T10:46:19.669Z,62.15
2022-12-19T10:49:25.005Z,63.08
2022-12-19T10:52:53.682Z,63.96
2022-12-19T10:56:03.149Z,64.45
2022-12-19T10:59:17.935Z,64.58
2022-12-19T11:02:34.477Z,64.46
2022-12-19T11:05:45.123Z,64.99
2022-12-19T11:08:52.945Z,64.66
2022-12-19T11:16:12.313Z,64.76
2022-12-19T11:21:27.046Z,64.11
2022-12-19T11:27:04.339Z,63.15
2022-12-19T11:29:37.682Z,63.19
2022-12-19T11:30:47.827Z,63.00
2022-12-19T11:32:49.179Z,62.28
2022-12-19T11:35:56.785Z,60.08
2022-12-19T11:39:01.307Z,59.67
2022-12-19T11:42:14.007Z,59.21
2022-12-19T11:45:22.306Z,60.39
2022-12-19T11:48:36.413Z,60.60
2022-12-19T11:51:49.906Z,60.16
2022-12-19T11:55:00.864Z,60.82
2022-12-19T11:58:06.137Z,60.87
2022-12-19T12:01:22.087Z,61.06
2022-12-19T12:04:51.641Z,61.78
2022-12-19T12:08:49.414Z,60.68
2022-12-19T12:18:29.839Z,60.06
2022-12-19T12:29:21.164Z,59.31
2022-12-19T12:31:07.208Z,58.48
2022-12-19T12:31:45.376Z,55.99
2022-12-19T12:31:50.447Z,55.99
2022-12-19T12:31:58.823Z,57.79
2022-12-19T12:35:45.381Z,56.71
2022-12-19T12:40:45.921Z,56.89
2022-12-19T12:44:08.039Z,53.72
2022-12-19T12:47:19.346Z,54.54
2022-12-19T12:50:26.732Z,54.69
2022-12-19T12:53:35.837Z,54.31
2022-12-19T12:56:41.202Z,54.08
2022-12-19T12:59:47.766Z,53.33
2022-12-19T13:02:56.777Z,52.94
2022-12-19T13:06:22.692Z,53.81
2022-12-19T13:09:29.544Z,53.42
2022-12-19T13:12:50.938Z,53.70
2022-12-19T13:15:54.894Z,52.64
2022-12-19T13:19:06.245Z,52.61
2022-12-19T13:22:23.349Z,53.64
2022-12-19T13:25:54.847Z,55.42
2022-12-19T13:29:28.048Z,55.54
2022-12-19T13:32:55.197Z,55.22
2022-12-19T13:39:42.319Z,55.70
2022-12-19T13:39:56.172Z,54.48
2022-12-19T13:43:22.254Z,54.42
2022-12-19T13:46:38.412Z,54.48
2022-12-19T13:49:42.668Z,55.10
2022-12-19T13:52:51.089Z,55.39
2022-12-19T13:56:00.528Z,55.65
2022-12-19T13:59:07.407Z,56.08
2022-12-19T14:02:22.783Z,55.85
2022-12-19T14:06:09.660Z,55.99
2022-12-19T14:11:26.683Z,55.92
2022-12-19T14:13:47.550Z,55.98
2022-12-19T14:16:17.206Z,56.99
2022-12-19T14:19:24.964Z,56.72
2022-12-19T14:22:28.725Z,55.59
2022-12-19T14:28:16.743Z,55.61
2022-12-19T14:29:08.404Z,55.75
2022-12-19T14:33:39.246Z,56.07
2022-12-19T14:36:06.966Z,57.88
2022-12-19T14:39:24.703Z,57.75
2022-12-19T14:43:30.234Z,58.02
2022-12-19T14:51:51.709Z,59.12
2022-12-19T14:54:05.763Z,60.88
2022-12-19T14:54:40.049Z,60.89
2022-12-19T14:56:59.322Z,60.97
2022-12-19T15:01:07.304Z,61.75
2022-12-19T15:04:50.973Z,61.88
2022-12-19T15:07:23.439Z,61.81
2022-12-19T15:11:08.479Z,61.70
2022-12-19T15:14:51.285Z,60.92
2022-12-19T15:17:22.963Z,61.33
2022-12-19T15:20:28.241Z,60.71
2022-12-19T15:23:33.157Z,59.63
2022-12-19T15:26:47.575Z,59.85
2022-12-19T15:29:51.808Z,59.82
2022-12-19T15:32:55.814Z,60.83
2022-12-19T15:36:01.623Z,60.51
2022-12-19T15:39:05.697Z,60.21
2022-12-19T15:42:19.188Z,60.41
2022-12-19T15:45:22.964Z,60.14
2022-12-19T15:48:27.811Z,59.18
2022-12-19T15:51:33.155Z,58.88
2022-12-19T15:54:52.284Z,57.51
2022-12-19T15:57:59.381Z,58.87
2022-12-19T16:01:05.405Z,58.14
2022-12-19T16:04:14.793Z,57.34
2022-12-19T16:07:22.021Z,57.91
2022-12-19T16:10:26.965Z,59.01
2022-12-19T16:13:32.556Z,59.15
2022-12-19T16:16:36.406Z,60.62
2022-12-19T16:19:41.465Z,61.15
2022-12-19T16:22:46.916Z,61.46
2022-12-19T16:25:52.562Z,61.42
2022-12-19T16:28:56.687Z,60.83
2022-12-19T16:32:01.982Z,60.64
2022-12-19T16:35:17.464Z,60.45
2022-12-19T16:38:29.154Z,59.89
2022-12-19T16:41:33.208Z,60.98
2022-12-19T16:44:48.527Z,60.84
2022-12-19T16:47:53.239Z,62.05
2022-12-19T16:50:58.699Z,62.22
2022-12-19T16:54:04.073Z,62.69
2022-12-19T16:57:16.269Z,63.14
2022-12-19T17:00:22.028Z,62.79
2022-12-19T17:03:31.407Z,62.92
2022-12-19T17:06:35.347Z,63.37
2022-12-19T17:09:40.620Z,63.03
2022-12-19T17:12:45.957Z,63.78
2022-12-19T17:15:56.426Z,63.42
2022-12-19T17:19:01.169Z,64.30
2022-12-19T17:22:05.658Z,64.12
2022-12-19T17:25:18.225Z,64.17
2022-12-19T17:28:22.227Z,63.80
2022-12-19T17:31:29.677Z,64.28
2022-12-19T17:34:35.298Z,65.96
2022-12-19T17:37:39.228Z,65.63
2022-12-19T17:40:45.904Z,66.36
2022-12-19T17:43:49.686Z,66.27
2022-12-19T17:46:53.882Z,66.45
2022-12-19T17:49:57.923Z,65.98
2022-12-19T17:53:01.710Z,67.19
2022-12-19T17:56:07.445Z,67.41
2022-12-19T17:59:11.192Z,67.39
2022-12-19T18:02:25.936Z,66.74
2022-12-19T18:05:33.502Z,66.83
2022-12-19T18:08:37.439Z,66.61
2022-12-19T18:11:42.773Z,66.63
2022-12-19T18:14:46.649Z,66.96
2022-12-19T18:17:53.365Z,67.40
2022-12-19T18:20:58.614Z,67.56
2022-12-19T18:24:02.623Z,67.78
2022-12-19T18:27:07.978Z,68.08
2022-12-19T18:30:14.956Z,68.83
2022-12-19T18:33:22.896Z,68.32
2022-12-19T18:36:28.017Z,67.52
2022-12-19T18:39:33.847Z,68.13
2022-12-19T18:42:39.113Z,67.78
2022-12-19T18:45:47.393Z,67.69
2022-12-19T18:48:51.334Z,67.27
2022-12-19T18:51:55.756Z,67.52
2022-12-19T18:54:59.595Z,67.73
2022-12-19T18:58:04.836Z,67.13
2022-12-19T19:01:14.358Z,66.51
2022-12-19T19:04:18.909Z,67.07
2022-12-19T19:07:22.780Z,66.26
2022-12-19T19:10:28.861Z,67.02
2022-12-19T19:13:43.643Z,66.85
2022-12-19T19:16:47.569Z,66.28
2022-12-19T19:19:51.522Z,65.81
2022-12-19T19:22:55.663Z,66.14
2022-12-19T19:25:59.575Z,65.81
2022-12-19T19:29:05.022Z,65.28
2022-12-19T19:32:09.136Z,64.16
2022-12-19T19:35:17.184Z,63.60
2022-12-19T19:38:23.046Z,63.17
2022-12-19T19:41:30.136Z,62.96
2022-12-19T19:44:35.605Z,63.70
2022-12-19T19:47:39.512Z,63.78
2022-12-19T19:50:43.435Z,64.54
2022-12-19T19:53:47.426Z,65.44
2022-12-19T19:56:51.207Z,66.08
2022-12-19T19:59:56.484Z,67.19
2022-12-19T20:03:06.298Z,67.95
2022-12-19T20:06:12.874Z,68.72
2022-12-19T20:09:17.008Z,68.59
2022-12-19T20:12:20.959Z,69.29
2022-12-19T20:15:26.367Z,69.05
2022-12-19T20:18:30.577Z,68.44
2022-12-19T20:21:34.420Z,68.64
2022-12-19T20:24:38.126Z,69.44
2022-12-19T20:27:42.092Z,69.68
2022-12-19T20:30:47.579Z,69.41
2022-12-19T20:33:53.333Z,69.94
2022-12-19T20:36:57.333Z,70.59
2022-12-19T20:40:01.151Z,69.72
2022-12-19T20:43:04.954Z,69.91
2022-12-19T20:46:13.115Z,70.29
2022-12-19T20:49:17.192Z,69.39
2022-12-19T20:52:21.044Z,69.09
2022-12-19T20:55:24.927Z,69.28
2022-12-19T20:58:29.437Z,68.61
2022-12-19T21:01:35.211Z,68.65
2022-12-19T21:04:39.220Z,69.17
2022-12-19T21:07:43.317Z,68.69
2022-12-19T21:10:47.197Z,68.43
2022-12-19T21:13:51.263Z,68.17
2022-12-19T21:16:56.584Z,67.72
2022-12-19T21:20:00.364Z,66.86
2022-12-19T21:23:04.285Z,67.51
2022-12-19T21:26:08.303Z,66.52
2022-12-19T21:29:12.242Z,66.71
2022-12-19T21:32:19.160Z,66.47
2022-12-19T21:35:23.614Z,65.86
2022-12-19T21:38:27.403Z,64.88
2022-12-19T21:41:31.622Z,64.79
2022-12-19T21:44:35.317Z,64.43
2022-12-19T21:47:42.288Z,63.86
2022-12-19T21:50:46.263Z,64.28
2022-12-19T21:53:54.483Z,64.11
2022-12-19T21:56:58.403Z,64.04
2022-12-19T22:00:02.227Z,64.52
2022-12-19T22:03:15.254Z,64.60
2022-12-19T22:06:27.284Z,63.90
2022-12-19T22:09:32.093Z,64.56
2022-12-19T22:12:35.799Z,64.53
2022-12-19T22:15:40.355Z,64.80
2022-12-19T22:18:46.213Z,64.74
2022-12-19T22:21:50.086Z,64.29
2022-12-19T22:24:53.895Z,64.45
2022-12-19T22:27:58.148Z,64.13
2022-12-19T22:31:02.225Z,63.89
2022-12-19T22:34:09.676Z,63.53
2022-12-19T22:37:13.529Z,62.24
2022-12-19T22:40:17.675Z,62.56
2022-12-19T22:43:21.781Z,63.51
2022-12-19T22:46:27.774Z,61.43
2022-12-19T22:49:33.064Z,61.58
2022-12-19T22:52:37.143Z,61.95
2022-12-19T22:55:41.043Z,63.00
2022-12-19T22:58:47.479Z,62.28
2022-12-19T23:01:51.559Z,61.92
2022-12-19T23:04:57.004Z,61.89
2022-12-19T23:08:01.086Z,61.95
2022-12-19T23:11:05.681Z,61.33
2022-12-19T23:14:13.497Z,62.23
2022-12-19T23:17:17.698Z,61.94
2022-12-19T23:20:22.957Z,61.69
2022-12-19T23:23:26.859Z,61.96
2022-12-19T23:26:32.398Z,62.00
2022-12-19T23:29:37.452Z,61.28
2022-12-19T23:32:47.054Z,61.82
2022-12-19T23:35:55.763Z,61.02
2022-12-19T23:38:59.642Z,62.61
2022-12-19T23:42:03.612Z,63.52
2022-12-19T23:45:08.687Z,63.97
2022-12-19T23:48:12.493Z,63.85
2022-12-19T23:51:20.357Z,63.54
2022-12-19T23:54:24.167Z,62.94
2022-12-19T23:57:28.016Z,63.59
